sensor_id;sensor_type;location;lat;lon;timestamp;P1;durP1;ratioP1;P2;durP2;ratioP2
22289;SDS011;11313;50.116;8.424;2023-04-25T00:01:14;57.22;;;54.05;;
22289;SDS011;11313;50.116;8.424;2023-04-25T00:03:39;62.15;;;58.72;;
22289;SDS011;11313;50.116;8.424;2023-04-25T00:06:05;173.05;;;163.02;;
22289;SDS011;11313;50.116;8.424;2023-04-25T00:08:31;124.03;;;116.75;;
22289;SDS011;11313;50.116;8.424;2023-04-25T00:10:57;151.55;;;142.82;;
22289;SDS011;11313;50.116;8.424;2023-04-25T00:13:23;106.68;;;100.53;;
22289;SDS011;11313;50.116;8.424;2023-04-25T00:15:50;130.38;;;122.82;;
22289;SDS011;11313;50.116;8.424;2023-04-25T00:18:16;101.88;;;95.95;;
22289;SDS011;11313;50.116;8.424;2023-04-25T00:20:42;104.88;;;98.85;;
22289;SDS011;11313;50.116;8.424;2023-04-25T00:23:11;117.13;;;110.32;;
22289;SDS011;11313;50.116;8.424;2023-04-25T00:25:47;111.13;;;104.72;;
22289;SDS011;11313;50.116;8.424;2023-04-25T00:28:13;136.57;;;128.80;;
22289;SDS011;11313;50.116;8.424;2023-04-25T00:30:39;133.15;;;125.43;;
22289;SDS011;11313;50.116;8.424;2023-04-25T00:33:05;164.43;;;155.05;;
22289;SDS011;11313;50.116;8.424;2023-04-25T00:35:31;172.90;;;162.98;;
22289;SDS011;11313;50.116;8.424;2023-04-25T00:37:57;187.80;;;177.30;;
22289;SDS011;11313;50.116;8.424;2023-04-25T00:40:23;229.48;;;216.48;;
22289;SDS011;11313;50.116;8.424;2023-04-25T00:42:49;214.60;;;202.25;;
22289;SDS011;11313;50.116;8.424;2023-04-25T00:45:16;113.10;;;106.63;;
22289;SDS011;11313;50.116;8.424;2023-04-25T00:47:42;195.73;;;184.57;;
22289;SDS011;11313;50.116;8.424;2023-04-25T00:50:09;179.02;;;168.85;;
22289;SDS011;11313;50.116;8.424;2023-04-25T00:52:36;240.63;;;226.98;;
22289;SDS011;11313;50.116;8.424;2023-04-25T00:55:04;126.63;;;119.45;;
22289;SDS011;11313;50.116;8.424;2023-04-25T00:57:30;201.93;;;190.63;;
22289;SDS011;11313;50.116;8.424;2023-04-25T00:59:56;78.90;;;74.45;;
22289;SDS011;11313;50.116;8.424;2023-04-25T01:02:21;85.05;;;80.28;;
22289;SDS011;11313;50.116;8.424;2023-04-25T01:04:47;91.00;;;85.90;;
22289;SDS011;11313;50.116;8.424;2023-04-25T01:07:13;84.03;;;79.30;;
22289;SDS011;11313;50.116;8.424;2023-04-25T01:09:39;113.72;;;107.28;;
22289;SDS011;11313;50.116;8.424;2023-04-25T01:12:06;217.20;;;204.85;;
22289;SDS011;11313;50.116;8.424;2023-04-25T01:14:31;220.18;;;207.88;;
22289;SDS011;11313;50.116;8.424;2023-04-25T01:16:57;199.77;;;188.48;;
22289;SDS011;11313;50.116;8.424;2023-04-25T01:19:23;197.80;;;186.68;;
22289;SDS011;11313;50.116;8.424;2023-04-25T01:21:50;235.63;;;222.23;;
22289;SDS011;11313;50.116;8.424;2023-04-25T01:24:15;226.65;;;214.00;;
22289;SDS011;11313;50.116;8.424;2023-04-25T01:26:42;232.40;;;219.15;;
22289;SDS011;11313;50.116;8.424;2023-04-25T01:29:15;248.57;;;234.52;;
22289;SDS011;11313;50.116;8.424;2023-04-25T01:31:41;197.95;;;186.82;;
22289;SDS011;11313;50.116;8.424;2023-04-25T01:34:09;200.07;;;188.75;;
22289;SDS011;11313;50.116;8.424;2023-04-25T01:36:34;229.55;;;216.38;;
22289;SDS011;11313;50.116;8.424;2023-04-25T01:39:00;209.00;;;197.13;;
22289;SDS011;11313;50.116;8.424;2023-04-25T01:41:27;237.93;;;224.32;;
22289;SDS011;11313;50.116;8.424;2023-04-25T01:43:52;255.57;;;241.05;;
22289;SDS011;11313;50.116;8.424;2023-04-25T01:46:18;247.38;;;233.38;;
22289;SDS011;11313;50.116;8.424;2023-04-25T01:48:44;251.57;;;237.38;;
22289;SDS011;11313;50.116;8.424;2023-04-25T01:51:11;245.10;;;231.13;;
22289;SDS011;11313;50.116;8.424;2023-04-25T01:53:37;223.88;;;211.32;;
22289;SDS011;11313;50.116;8.424;2023-04-25T01:56:04;245.35;;;231.43;;
22289;SDS011;11313;50.116;8.424;2023-04-25T01:58:30;219.43;;;206.82;;
22289;SDS011;11313;50.116;8.424;2023-04-25T02:00:55;244.40;;;230.63;;
22289;SDS011;11313;50.116;8.424;2023-04-25T02:03:21;228.55;;;215.75;;
22289;SDS011;11313;50.116;8.424;2023-04-25T02:05:46;255.23;;;240.68;;
22289;SDS011;11313;50.116;8.424;2023-04-25T02:08:12;243.40;;;229.60;;
22289;SDS011;11313;50.116;8.424;2023-04-25T02:10:38;250.38;;;236.10;;
22289;SDS011;11313;50.116;8.424;2023-04-25T02:13:03;260.20;;;245.20;;
22289;SDS011;11313;50.116;8.424;2023-04-25T02:15:30;237.45;;;223.93;;
22289;SDS011;11313;50.116;8.424;2023-04-25T02:17:56;238.93;;;225.43;;
22289;SDS011;11313;50.116;8.424;2023-04-25T02:20:23;215.75;;;203.50;;
22289;SDS011;11313;50.116;8.424;2023-04-25T02:22:49;228.18;;;215.00;;
22289;SDS011;11313;50.116;8.424;2023-04-25T02:25:15;231.77;;;218.35;;
22289;SDS011;11313;50.116;8.424;2023-04-25T02:27:41;144.45;;;136.30;;
22289;SDS011;11313;50.116;8.424;2023-04-25T02:30:08;145.43;;;137.25;;
22289;SDS011;11313;50.116;8.424;2023-04-25T02:32:33;201.68;;;190.30;;
22289;SDS011;11313;50.116;8.424;2023-04-25T02:34:59;228.05;;;215.10;;
22289;SDS011;11313;50.116;8.424;2023-04-25T02:37:29;229.35;;;216.38;;
22289;SDS011;11313;50.116;8.424;2023-04-25T02:39:55;227.50;;;214.73;;
22289;SDS011;11313;50.116;8.424;2023-04-25T02:42:21;221.13;;;208.57;;
22289;SDS011;11313;50.116;8.424;2023-04-25T02:44:46;240.13;;;226.52;;
22289;SDS011;11313;50.116;8.424;2023-04-25T02:47:12;203.48;;;191.90;;
22289;SDS011;11313;50.116;8.424;2023-04-25T02:49:37;237.50;;;223.98;;
22289;SDS011;11313;50.116;8.424;2023-04-25T02:52:03;254.65;;;240.07;;
22289;SDS011;11313;50.116;8.424;2023-04-25T02:54:28;226.07;;;213.23;;
22289;SDS011;11313;50.116;8.424;2023-04-25T02:56:55;227.38;;;214.32;;
22289;SDS011;11313;50.116;8.424;2023-04-25T02:59:20;225.75;;;212.70;;
22289;SDS011;11313;50.116;8.424;2023-04-25T03:01:46;204.82;;;193.32;;
22289;SDS011;11313;50.116;8.424;2023-04-25T03:04:11;193.23;;;182.27;;
22289;SDS011;11313;50.116;8.424;2023-04-25T03:06:37;238.82;;;225.40;;
22289;SDS011;11313;50.116;8.424;2023-04-25T03:09:02;235.82;;;222.27;;
22289;SDS011;11313;50.116;8.424;2023-04-25T03:11:28;255.13;;;240.60;;
22289;SDS011;11313;50.116;8.424;2023-04-25T03:13:54;243.73;;;229.85;;
22289;SDS011;11313;50.116;8.424;2023-04-25T03:16:20;216.85;;;204.65;;
22289;SDS011;11313;50.116;8.424;2023-04-25T03:18:46;269.15;;;253.77;;
22289;SDS011;11313;50.116;8.424;2023-04-25T03:21:11;268.67;;;253.20;;
22289;SDS011;11313;50.116;8.424;2023-04-25T03:23:37;167.10;;;157.68;;
22289;SDS011;11313;50.116;8.424;2023-04-25T03:26:02;221.35;;;208.82;;
22289;SDS011;11313;50.116;8.424;2023-04-25T03:28:28;195.90;;;184.75;;
22289;SDS011;11313;50.116;8.424;2023-04-25T03:30:53;260.45;;;245.65;;
22289;SDS011;11313;50.116;8.424;2023-04-25T03:33:19;217.13;;;204.93;;
22289;SDS011;11313;50.116;8.424;2023-04-25T03:35:44;261.05;;;246.15;;
22289;SDS011;11313;50.116;8.424;2023-04-25T03:38:10;235.23;;;221.95;;
22289;SDS011;11313;50.116;8.424;2023-04-25T03:40:36;233.05;;;219.93;;
22289;SDS011;11313;50.116;8.424;2023-04-25T03:43:01;212.65;;;200.27;;
22289;SDS011;11313;50.116;8.424;2023-04-25T03:45:26;277.42;;;261.25;;
22289;SDS011;11313;50.116;8.424;2023-04-25T03:47:52;242.35;;;228.57;;
22289;SDS011;11313;50.116;8.424;2023-04-25T03:50:17;168.77;;;159.25;;
22289;SDS011;11313;50.116;8.424;2023-04-25T03:52:43;212.20;;;200.23;;
22289;SDS011;11313;50.116;8.424;2023-04-25T03:55:09;264.15;;;249.00;;
22289;SDS011;11313;50.116;8.424;2023-04-25T03:57:35;270.67;;;255.25;;
22289;SDS011;11313;50.116;8.424;2023-04-25T04:00:00;233.82;;;220.57;;
22289;SDS011;11313;50.116;8.424;2023-04-25T04:02:26;267.63;;;252.23;;
22289;SDS011;11313;50.116;8.424;2023-04-25T04:04:52;224.27;;;211.52;;
22289;SDS011;11313;50.116;8.424;2023-04-25T04:07:18;279.67;;;263.85;;
22289;SDS011;11313;50.116;8.424;2023-04-25T04:09:43;290.80;;;274.15;;
22289;SDS011;11313;50.116;8.424;2023-04-25T04:12:09;284.83;;;268.40;;
22289;SDS011;11313;50.116;8.424;2023-04-25T04:14:34;257.60;;;243.05;;
22289;SDS011;11313;50.116;8.424;2023-04-25T04:17:00;183.93;;;173.57;;
22289;SDS011;11313;50.116;8.424;2023-04-25T04:19:25;260.05;;;245.23;;
22289;SDS011;11313;50.116;8.424;2023-04-25T04:21:51;262.73;;;247.35;;
22289;SDS011;11313;50.116;8.424;2023-04-25T04:24:16;284.77;;;268.35;;
22289;SDS011;11313;50.116;8.424;2023-04-25T04:26:42;226.23;;;213.32;;
22289;SDS011;11313;50.116;8.424;2023-04-25T04:29:09;253.45;;;238.85;;
22289;SDS011;11313;50.116;8.424;2023-04-25T04:31:35;217.18;;;204.70;;
22289;SDS011;11313;50.116;8.424;2023-04-25T04:34:01;122.20;;;115.30;;
22289;SDS011;11313;50.116;8.424;2023-04-25T04:36:28;139.32;;;131.32;;
22289;SDS011;11313;50.116;8.424;2023-04-25T04:38:54;194.75;;;183.70;;
22289;SDS011;11313;50.116;8.424;2023-04-25T04:41:21;196.73;;;185.63;;
22289;SDS011;11313;50.116;8.424;2023-04-25T04:43:47;221.40;;;208.60;;
22289;SDS011;11313;50.116;8.424;2023-04-25T04:46:12;231.93;;;218.75;;
22289;SDS011;11313;50.116;8.424;2023-04-25T04:48:38;199.88;;;188.52;;
22289;SDS011;11313;50.116;8.424;2023-04-25T04:51:05;178.65;;;168.55;;
22289;SDS011;11313;50.116;8.424;2023-04-25T04:53:30;169.73;;;160.00;;
22289;SDS011;11313;50.116;8.424;2023-04-25T04:55:56;166.23;;;156.63;;
22289;SDS011;11313;50.116;8.424;2023-04-25T04:58:21;200.98;;;189.48;;
22289;SDS011;11313;50.116;8.424;2023-04-25T05:00:47;133.07;;;125.43;;
22289;SDS011;11313;50.116;8.424;2023-04-25T05:03:13;186.57;;;175.82;;
22289;SDS011;11313;50.116;8.424;2023-04-25T05:05:38;211.85;;;199.60;;
22289;SDS011;11313;50.116;8.424;2023-04-25T05:08:07;196.43;;;185.00;;
22289;SDS011;11313;50.116;8.424;2023-04-25T05:10:32;175.05;;;164.50;;
22289;SDS011;11313;50.116;8.424;2023-04-25T05:12:58;221.20;;;208.45;;
22289;SDS011;11313;50.116;8.424;2023-04-25T05:15:24;267.85;;;252.13;;
22289;SDS011;11313;50.116;8.424;2023-04-25T05:17:49;237.75;;;224.00;;
22289;SDS011;11313;50.116;8.424;2023-04-25T05:20:15;253.57;;;238.88;;
22289;SDS011;11313;50.116;8.424;2023-04-25T05:22:41;251.25;;;236.50;;
22289;SDS011;11313;50.116;8.424;2023-04-25T05:25:07;234.60;;;220.82;;
22289;SDS011;11313;50.116;8.424;2023-04-25T05:27:33;286.40;;;269.77;;
22289;SDS011;11313;50.116;8.424;2023-04-25T05:29:59;248.65;;;234.35;;
22289;SDS011;11313;50.116;8.424;2023-04-25T05:32:24;186.38;;;175.45;;
22289;SDS011;11313;50.116;8.424;2023-04-25T05:34:50;237.02;;;223.18;;
22289;SDS011;11313;50.116;8.424;2023-04-25T05:37:16;215.15;;;202.68;;
22289;SDS011;11313;50.116;8.424;2023-04-25T05:39:42;186.48;;;175.60;;
22289;SDS011;11313;50.116;8.424;2023-04-25T05:42:08;160.23;;;150.85;;
22289;SDS011;11313;50.116;8.424;2023-04-25T05:44:33;254.57;;;239.70;;
22289;SDS011;11313;50.116;8.424;2023-04-25T05:46:59;190.13;;;178.98;;
22289;SDS011;11313;50.116;8.424;2023-04-25T05:49:24;201.98;;;190.00;;
22289;SDS011;11313;50.116;8.424;2023-04-25T05:51:50;242.82;;;228.85;;
22289;SDS011;11313;50.116;8.424;2023-04-25T05:54:15;222.93;;;209.90;;
22289;SDS011;11313;50.116;8.424;2023-04-25T05:56:41;226.80;;;213.52;;
22289;SDS011;11313;50.116;8.424;2023-04-25T05:59:06;214.95;;;202.60;;
22289;SDS011;11313;50.116;8.424;2023-04-25T06:01:32;230.02;;;216.68;;
22289;SDS011;11313;50.116;8.424;2023-04-25T06:03:57;230.55;;;217.30;;
22289;SDS011;11313;50.116;8.424;2023-04-25T06:06:23;229.35;;;215.88;;
22289;SDS011;11313;50.116;8.424;2023-04-25T06:08:49;245.52;;;231.10;;
22289;SDS011;11313;50.116;8.424;2023-04-25T06:11:15;273.05;;;257.33;;
22289;SDS011;11313;50.116;8.424;2023-04-25T06:13:40;282.80;;;266.08;;
22289;SDS011;11313;50.116;8.424;2023-04-25T06:16:06;253.38;;;238.75;;
22289;SDS011;11313;50.116;8.424;2023-04-25T06:18:32;228.43;;;215.27;;
22289;SDS011;11313;50.116;8.424;2023-04-25T06:20:57;237.10;;;223.45;;
22289;SDS011;11313;50.116;8.424;2023-04-25T06:23:23;238.77;;;224.80;;
22289;SDS011;11313;50.116;8.424;2023-04-25T06:25:48;210.57;;;198.48;;
22289;SDS011;11313;50.116;8.424;2023-04-25T06:28:14;188.82;;;177.82;;
22289;SDS011;11313;50.116;8.424;2023-04-25T06:30:39;250.02;;;235.35;;
22289;SDS011;11313;50.116;8.424;2023-04-25T06:33:05;244.13;;;230.02;;
22289;SDS011;11313;50.116;8.424;2023-04-25T06:35:31;183.60;;;172.75;;
22289;SDS011;11313;50.116;8.424;2023-04-25T06:37:56;249.30;;;234.90;;
22289;SDS011;11313;50.116;8.424;2023-04-25T06:40:22;214.15;;;201.45;;
22289;SDS011;11313;50.116;8.424;2023-04-25T06:42:47;203.02;;;191.38;;
22289;SDS011;11313;50.116;8.424;2023-04-25T06:45:13;243.55;;;229.48;;
22289;SDS011;11313;50.116;8.424;2023-04-25T06:47:38;189.15;;;178.30;;
22289;SDS011;11313;50.116;8.424;2023-04-25T06:50:04;223.43;;;210.25;;
22289;SDS011;11313;50.116;8.424;2023-04-25T06:52:30;264.65;;;249.27;;
22289;SDS011;11313;50.116;8.424;2023-04-25T06:54:56;215.32;;;202.82;;
22289;SDS011;11313;50.116;8.424;2023-04-25T06:57:21;191.35;;;180.20;;
22289;SDS011;11313;50.116;8.424;2023-04-25T06:59:47;177.75;;;167.25;;
22289;SDS011;11313;50.116;8.424;2023-04-25T07:02:12;220.60;;;207.52;;
22289;SDS011;11313;50.116;8.424;2023-04-25T07:04:38;221.82;;;209.10;;
22289;SDS011;11313;50.116;8.424;2023-04-25T07:07:03;242.48;;;228.43;;
22289;SDS011;11313;50.116;8.424;2023-04-25T07:09:29;223.25;;;210.25;;
22289;SDS011;11313;50.116;8.424;2023-04-25T07:11:55;211.90;;;199.43;;
22289;SDS011;11313;50.116;8.424;2023-04-25T07:14:21;292.02;;;274.98;;
22289;SDS011;11313;50.116;8.424;2023-04-25T07:16:47;203.70;;;191.93;;
22289;SDS011;11313;50.116;8.424;2023-04-25T07:19:12;245.60;;;231.20;;
22289;SDS011;11313;50.116;8.424;2023-04-25T07:21:38;253.45;;;238.77;;
22289;SDS011;11313;50.116;8.424;2023-04-25T07:24:03;180.57;;;170.05;;
22289;SDS011;11313;50.116;8.424;2023-04-25T07:26:29;236.10;;;222.60;;
22289;SDS011;11313;50.116;8.424;2023-04-25T07:28:55;194.60;;;183.32;;
22289;SDS011;11313;50.116;8.424;2023-04-25T07:31:21;263.80;;;248.77;;
22289;SDS011;11313;50.116;8.424;2023-04-25T07:33:47;273.65;;;257.90;;
22289;SDS011;11313;50.116;8.424;2023-04-25T07:36:13;266.55;;;250.90;;
22289;SDS011;11313;50.116;8.424;2023-04-25T07:38:40;234.85;;;221.13;;
22289;SDS011;11313;50.116;8.424;2023-04-25T07:41:05;247.27;;;232.75;;
22289;SDS011;11313;50.116;8.424;2023-04-25T07:43:31;275.30;;;259.35;;
22289;SDS011;11313;50.116;8.424;2023-04-25T07:45:56;292.50;;;275.40;;
22289;SDS011;11313;50.116;8.424;2023-04-25T07:48:22;279.95;;;263.58;;
22289;SDS011;11313;50.116;8.424;2023-04-25T07:50:48;286.45;;;269.80;;
22289;SDS011;11313;50.116;8.424;2023-04-25T07:53:13;267.30;;;252.00;;
22289;SDS011;11313;50.116;8.424;2023-04-25T07:55:39;296.02;;;278.88;;
22289;SDS011;11313;50.116;8.424;2023-04-25T07:58:08;299.75;;;282.27;;
22289;SDS011;11313;50.116;8.424;2023-04-25T08:00:34;286.30;;;269.50;;
22289;SDS011;11313;50.116;8.424;2023-04-25T08:03:02;264.98;;;249.65;;
22289;SDS011;11313;50.116;8.424;2023-04-25T08:05:27;270.50;;;254.73;;
22289;SDS011;11313;50.116;8.424;2023-04-25T08:07:53;263.48;;;248.35;;
22289;SDS011;11313;50.116;8.424;2023-04-25T08:10:19;223.15;;;210.32;;
22289;SDS011;11313;50.116;8.424;2023-04-25T08:12:44;292.02;;;275.10;;
22289;SDS011;11313;50.116;8.424;2023-04-25T08:15:10;270.10;;;254.38;;
22289;SDS011;11313;50.116;8.424;2023-04-25T08:17:35;214.48;;;202.07;;
22289;SDS011;11313;50.116;8.424;2023-04-25T08:20:01;241.55;;;227.65;;
22289;SDS011;11313;50.116;8.424;2023-04-25T08:22:30;267.75;;;251.98;;
22289;SDS011;11313;50.116;8.424;2023-04-25T08:24:55;273.17;;;257.45;;
22289;SDS011;11313;50.116;8.424;2023-04-25T08:27:21;276.67;;;260.58;;
22289;SDS011;11313;50.116;8.424;2023-04-25T08:29:46;297.60;;;280.20;;
22289;SDS011;11313;50.116;8.424;2023-04-25T08:32:12;228.45;;;215.02;;
22289;SDS011;11313;50.116;8.424;2023-04-25T08:34:38;257.52;;;242.82;;
22289;SDS011;11313;50.116;8.424;2023-04-25T08:37:07;262.33;;;247.15;;
22289;SDS011;11313;50.116;8.424;2023-04-25T08:39:33;277.55;;;261.65;;
22289;SDS011;11313;50.116;8.424;2023-04-25T08:41:58;240.50;;;226.70;;
22289;SDS011;11313;50.116;8.424;2023-04-25T08:44:26;265.23;;;249.90;;
22289;SDS011;11313;50.116;8.424;2023-04-25T08:46:51;299.98;;;282.55;;
22289;SDS011;11313;50.116;8.424;2023-04-25T08:49:17;244.45;;;230.45;;
22289;SDS011;11313;50.116;8.424;2023-04-25T08:51:44;293.42;;;276.25;;
22289;SDS011;11313;50.116;8.424;2023-04-25T08:54:12;196.00;;;184.40;;
22289;SDS011;11313;50.116;8.424;2023-04-25T08:56:39;196.38;;;185.05;;
22289;SDS011;11313;50.116;8.424;2023-04-25T08:59:06;266.40;;;251.13;;
22289;SDS011;11313;50.116;8.424;2023-04-25T09:01:33;244.77;;;230.90;;
22289;SDS011;11313;50.116;8.424;2023-04-25T09:04:02;273.17;;;257.27;;
22289;SDS011;11313;50.116;8.424;2023-04-25T09:06:31;248.40;;;234.05;;
22289;SDS011;11313;50.116;8.424;2023-04-25T09:09:05;209.37;;;197.33;;
22289;SDS011;11313;50.116;8.424;2023-04-25T09:11:32;225.35;;;212.07;;
22289;SDS011;11313;50.116;8.424;2023-04-25T09:14:11;249.43;;;235.02;;
22289;SDS011;11313;50.116;8.424;2023-04-25T09:19:28;259.27;;;244.20;;
22289;SDS011;11313;50.116;8.424;2023-04-25T09:21:59;240.95;;;226.80;;
22289;SDS011;11313;50.116;8.424;2023-04-25T09:27:07;285.27;;;268.73;;
22289;SDS011;11313;50.116;8.424;2023-04-25T09:29:35;264.90;;;249.55;;
22289;SDS011;11313;50.116;8.424;2023-04-25T09:32:15;215.48;;;202.98;;
22289;SDS011;11313;50.116;8.424;2023-04-25T09:34:52;227.90;;;214.45;;
22289;SDS011;11313;50.116;8.424;2023-04-25T09:37:23;210.05;;;198.18;;
22289;SDS011;11313;50.116;8.424;2023-04-25T09:39:50;206.23;;;194.50;;
22289;SDS011;11313;50.116;8.424;2023-04-25T09:42:21;165.32;;;155.60;;
22289;SDS011;11313;50.116;8.424;2023-04-25T09:44:48;226.73;;;213.73;;
22289;SDS011;11313;50.116;8.424;2023-04-25T09:47:16;199.90;;;188.50;;
22289;SDS011;11313;50.116;8.424;2023-04-25T09:49:42;217.40;;;204.95;;
22289;SDS011;11313;50.116;8.424;2023-04-25T09:52:08;233.48;;;220.07;;
22289;SDS011;11313;50.116;8.424;2023-04-25T09:54:38;257.95;;;243.15;;
22289;SDS011;11313;50.116;8.424;2023-04-25T09:57:10;241.90;;;228.13;;
22289;SDS011;11313;50.116;8.424;2023-04-25T09:59:38;221.00;;;208.07;;
22289;SDS011;11313;50.116;8.424;2023-04-25T10:02:07;260.95;;;246.25;;
22289;SDS011;11313;50.116;8.424;2023-04-25T10:04:34;250.07;;;235.77;;
22289;SDS011;11313;50.116;8.424;2023-04-25T10:07:01;258.27;;;243.45;;
22289;SDS011;11313;50.116;8.424;2023-04-25T10:09:28;221.30;;;208.68;;
22289;SDS011;11313;50.116;8.424;2023-04-25T10:11:57;246.15;;;232.07;;
22289;SDS011;11313;50.116;8.424;2023-04-25T10:14:23;288.83;;;271.88;;
22289;SDS011;11313;50.116;8.424;2023-04-25T10:16:50;246.10;;;232.18;;
22289;SDS011;11313;50.116;8.424;2023-04-25T10:19:18;178.27;;;168.10;;
22289;SDS011;11313;50.116;8.424;2023-04-25T10:21:52;198.15;;;186.80;;
22289;SDS011;11313;50.116;8.424;2023-04-25T10:24:21;234.88;;;221.43;;
22289;SDS011;11313;50.116;8.424;2023-04-25T10:26:47;203.48;;;191.82;;
22289;SDS011;11313;50.116;8.424;2023-04-25T10:29:17;223.50;;;210.82;;
22289;SDS011;11313;50.116;8.424;2023-04-25T10:31:48;181.98;;;171.70;;
22289;SDS011;11313;50.116;8.424;2023-04-25T10:34:13;203.98;;;192.60;;
22289;SDS011;11313;50.116;8.424;2023-04-25T10:36:40;165.77;;;156.40;;
22289;SDS011;11313;50.116;8.424;2023-04-25T10:39:05;195.30;;;184.20;;
22289;SDS011;11313;50.116;8.424;2023-04-25T10:41:32;168.50;;;158.80;;
22289;SDS011;11313;50.116;8.424;2023-04-25T10:44:11;193.95;;;182.60;;
22289;SDS011;11313;50.116;8.424;2023-04-25T10:46:36;279.83;;;263.45;;
22289;SDS011;11313;50.116;8.424;2023-04-25T10:49:02;256.52;;;241.98;;
22289;SDS011;11313;50.116;8.424;2023-04-25T10:51:29;263.08;;;247.90;;
22289;SDS011;11313;50.116;8.424;2023-04-25T10:54:01;253.85;;;239.20;;
22289;SDS011;11313;50.116;8.424;2023-04-25T10:56:29;175.10;;;165.02;;
22289;SDS011;11313;50.116;8.424;2023-04-25T10:59:06;238.27;;;224.48;;
22289;SDS011;11313;50.116;8.424;2023-04-25T11:01:41;246.48;;;232.43;;
22289;SDS011;11313;50.116;8.424;2023-04-25T11:04:24;235.52;;;222.00;;
22289;SDS011;11313;50.116;8.424;2023-04-25T11:09:42;158.55;;;149.43;;
22289;SDS011;11313;50.116;8.424;2023-04-25T11:12:10;226.02;;;212.63;;
22289;SDS011;11313;50.116;8.424;2023-04-25T11:14:39;193.93;;;182.90;;
22289;SDS011;11313;50.116;8.424;2023-04-25T11:17:05;216.63;;;204.45;;
22289;SDS011;11313;50.116;8.424;2023-04-25T11:19:31;186.43;;;175.82;;
22289;SDS011;11313;50.116;8.424;2023-04-25T11:22:00;236.20;;;222.77;;
22289;SDS011;11313;50.116;8.424;2023-04-25T11:24:29;212.47;;;200.40;;
22289;SDS011;11313;50.116;8.424;2023-04-25T11:26:57;302.50;;;285.02;;
22289;SDS011;11313;50.116;8.424;2023-04-25T11:29:26;291.92;;;275.00;;
22289;SDS011;11313;50.116;8.424;2023-04-25T11:31:52;283.30;;;266.85;;
22289;SDS011;11313;50.116;8.424;2023-04-25T11:34:20;282.33;;;265.65;;
22289;SDS011;11313;50.116;8.424;2023-04-25T11:36:46;278.13;;;262.05;;
22289;SDS011;11313;50.116;8.424;2023-04-25T11:39:12;274.48;;;258.73;;
22289;SDS011;11313;50.116;8.424;2023-04-25T11:41:38;278.55;;;262.48;;
22289;SDS011;11313;50.116;8.424;2023-04-25T11:44:03;252.90;;;238.40;;
22289;SDS011;11313;50.116;8.424;2023-04-25T11:46:30;230.65;;;217.52;;
22289;SDS011;11313;50.116;8.424;2023-04-25T11:48:58;215.65;;;203.35;;
22289;SDS011;11313;50.116;8.424;2023-04-25T11:51:24;248.10;;;233.68;;
22289;SDS011;11313;50.116;8.424;2023-04-25T11:53:51;253.77;;;239.00;;
22289;SDS011;11313;50.116;8.424;2023-04-25T11:56:16;221.85;;;208.93;;
22289;SDS011;11313;50.116;8.424;2023-04-25T11:58:55;220.63;;;208.07;;
22289;SDS011;11313;50.116;8.424;2023-04-25T12:01:35;283.60;;;267.15;;
22289;SDS011;11313;50.116;8.424;2023-04-25T12:04:15;321.73;;;303.10;;
22289;SDS011;11313;50.116;8.424;2023-04-25T12:06:51;298.83;;;281.55;;
22289;SDS011;11313;50.116;8.424;2023-04-25T12:09:38;237.80;;;224.20;;
22289;SDS011;11313;50.116;8.424;2023-04-25T12:12:04;215.02;;;202.77;;
22289;SDS011;11313;50.116;8.424;2023-04-25T12:14:31;225.55;;;212.65;;
22289;SDS011;11313;50.116;8.424;2023-04-25T12:16:58;292.92;;;276.23;;
22289;SDS011;11313;50.116;8.424;2023-04-25T12:19:26;288.58;;;271.92;;
22289;SDS011;11313;50.116;8.424;2023-04-25T12:22:00;241.45;;;227.77;;
22289;SDS011;11313;50.116;8.424;2023-04-25T12:24:28;228.98;;;215.95;;
22289;SDS011;11313;50.116;8.424;2023-04-25T12:26:58;231.90;;;218.60;;
22289;SDS011;11313;50.116;8.424;2023-04-25T12:29:26;268.83;;;253.40;;
22289;SDS011;11313;50.116;8.424;2023-04-25T12:31:53;266.02;;;251.10;;
22289;SDS011;11313;50.116;8.424;2023-04-25T12:34:20;261.75;;;246.73;;
22289;SDS011;11313;50.116;8.424;2023-04-25T12:36:46;283.25;;;267.10;;
22289;SDS011;11313;50.116;8.424;2023-04-25T12:39:19;287.60;;;270.80;;
22289;SDS011;11313;50.116;8.424;2023-04-25T12:41:46;268.42;;;253.07;;
22289;SDS011;11313;50.116;8.424;2023-04-25T12:44:12;325.23;;;306.45;;
22289;SDS011;11313;50.116;8.424;2023-04-25T12:46:39;300.95;;;283.45;;
22289;SDS011;11313;50.116;8.424;2023-04-25T12:49:06;260.80;;;246.05;;
22289;SDS011;11313;50.116;8.424;2023-04-25T12:51:35;298.38;;;281.00;;
22289;SDS011;11313;50.116;8.424;2023-04-25T12:54:01;236.00;;;222.52;;
22289;SDS011;11313;50.116;8.424;2023-04-25T12:56:28;214.75;;;202.38;;
22289;SDS011;11313;50.116;8.424;2023-04-25T12:58:54;243.60;;;229.73;;
22289;SDS011;11313;50.116;8.424;2023-04-25T13:01:20;229.18;;;216.23;;
22289;SDS011;11313;50.116;8.424;2023-04-25T13:03:46;245.23;;;231.15;;
22289;SDS011;11313;50.116;8.424;2023-04-25T13:06:13;287.48;;;270.60;;
22289;SDS011;11313;50.116;8.424;2023-04-25T13:08:38;196.40;;;185.13;;
22289;SDS011;11313;50.116;8.424;2023-04-25T13:11:05;234.18;;;220.68;;
22289;SDS011;11313;50.116;8.424;2023-04-25T13:13:31;278.95;;;263.20;;
22289;SDS011;11313;50.116;8.424;2023-04-25T13:15:56;292.70;;;275.83;;
22289;SDS011;11313;50.116;8.424;2023-04-25T13:18:22;276.15;;;260.27;;
22289;SDS011;11313;50.116;8.424;2023-04-25T13:20:51;285.83;;;268.85;;
22289;SDS011;11313;50.116;8.424;2023-04-25T13:23:18;288.17;;;271.50;;
22289;SDS011;11313;50.116;8.424;2023-04-25T13:25:44;268.35;;;252.75;;
22289;SDS011;11313;50.116;8.424;2023-04-25T13:28:09;301.70;;;284.35;;
22289;SDS011;11313;50.116;8.424;2023-04-25T13:30:35;272.08;;;256.20;;
22289;SDS011;11313;50.116;8.424;2023-04-25T13:33:01;301.48;;;283.88;;
22289;SDS011;11313;50.116;8.424;2023-04-25T13:35:28;234.40;;;220.63;;
22289;SDS011;11313;50.116;8.424;2023-04-25T13:37:55;222.18;;;209.50;;
22289;SDS011;11313;50.116;8.424;2023-04-25T13:40:21;213.40;;;201.25;;
22289;SDS011;11313;50.116;8.424;2023-04-25T13:42:46;231.10;;;217.50;;
22289;SDS011;11313;50.116;8.424;2023-04-25T13:45:12;267.38;;;252.00;;
22289;SDS011;11313;50.116;8.424;2023-04-25T13:47:37;284.38;;;267.73;;
22289;SDS011;11313;50.116;8.424;2023-04-25T13:50:03;230.48;;;217.05;;
22289;SDS011;11313;50.116;8.424;2023-04-25T13:52:30;263.67;;;248.23;;
22289;SDS011;11313;50.116;8.424;2023-04-25T13:54:56;295.35;;;278.05;;
22289;SDS011;11313;50.116;8.424;2023-04-25T13:57:23;298.55;;;281.25;;
22289;SDS011;11313;50.116;8.424;2023-04-25T13:59:48;261.55;;;246.63;;
22289;SDS011;11313;50.116;8.424;2023-04-25T14:02:15;275.63;;;259.70;;